Flight Track Log - Related Links

Times and Time Zones

All times are in EDT time to prevent confusion due to time zone crossing. See the KDC200 flight status page for this flight to view local times or setup timezone preferences in your user account.

Time Position Orientation Groundspeed Altitude Reporting Facility
EDT Latitude Longitude Course Direction KTS MPH feet Rate Location/Type
Mon 02:29:20 PM 49.1333 -123.1667 260° West 130 150 1,900  Level Vancouver Center
Mon 02:30:20 PM 49.1000 -123.1333 147° Southeast 120 138 2,900 850 Climbing Vancouver Center
Mon 02:31:20 PM 49.0667 -123.1333 180° South 140 161 3,600 650 Climbing Vancouver Center
Mon 02:32:20 PM 49.0333 -123.1333 180° South 160 184 4,200 600 Climbing Vancouver Center
Mon 02:33:00 PM 49.1450 -123.5284 260° West  Level FlightAware Approximate
Mon 02:33:20 PM 49.0167 -123.2167 253° West 140 161 4,800  Level Vancouver Center
Mon 02:34:00 PM 49.1386 -123.5861 260° West  Level FlightAware Approximate
Mon 02:34:20 PM 49.0167 -123.2667 270° West 140 161 5,300  Level Vancouver Center
Mon 02:35:20 PM 49.0167 -123.3167 270° West 140 161 5,800 500 Climbing Vancouver Center
Mon 02:36:20 PM 49.0333 -123.4000 287° West 150 173 6,300 450 Climbing Vancouver Center
Mon 02:37:20 PM 49.0333 -123.4500 270° West 150 173 6,700 350 Climbing Vancouver Center
Mon 02:38:20 PM 49.0333 -123.5167 270° West 150 173 7,000 350 Climbing Vancouver Center
Mon 02:39:20 PM 49.0333 -123.5667 270° West 150 173 7,400 350 Climbing Vancouver Center
Mon 02:40:20 PM 49.0333 -123.6500 270° West 150 173 7,700 350 Climbing Vancouver Center
Mon 02:41:20 PM 49.0333 -123.7000 270° West 150 173 8,100 400 Climbing Vancouver Center
Mon 02:42:20 PM 49.0500 -123.7667 291° West 160 184 8,500 400 Climbing Vancouver Center
Mon 02:43:20 PM 49.0500 -123.8500 270° West 160 184 8,900 350 Climbing Vancouver Center
Mon 02:44:20 PM 49.0500 -123.9000 270° West 150 173 9,200 350 Climbing Vancouver Center
Mon 02:45:20 PM 49.0500 -123.9833 270° West 150 173 9,600 350 Climbing Vancouver Center
Mon 02:46:20 PM 49.0500 -124.0333 270° West 150 173 9,900 250 Climbing Vancouver Center
Mon 02:47:20 PM 49.0500 -124.1000 270° West 150 173 10,100 50 Climbing Vancouver Center
Mon 02:48:20 PM 49.0500 -124.1500 270° West 160 184 10,000 -50 Descending Vancouver Center
Mon 02:49:20 PM 49.0500 -124.2333 270° West 160 184 10,000  Level Vancouver Center
Mon 02:50:20 PM 49.0500 -124.3167 270° West 160 184 10,000  Level Vancouver Center
Mon 02:52:20 PM 49.0500 -124.4333 270° West 160 184 10,000  Level Vancouver Center
Mon 02:53:20 PM 49.0500 -124.5167 270° West 160 184 10,000 -50 Level Vancouver Center
Mon 02:54:20 PM 49.0500 -124.5833 270° West 170 196 9,900 -250 Descending Vancouver Center
Mon 02:55:20 PM 49.0500 -124.6333 270° West 170 196 9,500 -500 Descending Vancouver Center
Mon 02:56:20 PM 49.0500 -124.7167 270° West 180 207 8,900 -650 Descending Vancouver Center
Mon 02:57:20 PM 49.0333 -124.8167 256° West 180 207 8,200 -400 Descending Vancouver Center
Mon 02:58:20 PM 49.0500 -124.8667 297° West 180 207 8,100 -97 Descending Vancouver Center
Mon 03:00:25 PM 49.0500 -125.0000 270° West 150 173 7,900 -195 Descending Vancouver Center
Mon 03:01:25 PM 49.0500 -125.0667 270° West 160 184 7,500 -250 Descending Vancouver Center
Mon 03:02:25 PM 49.0500 -125.1500 270° West 160 184 7,400 -250 Descending Vancouver Center
Mon 03:03:25 PM 49.0167 -125.2000 225° Southwest 160 184 7,000 -500 Descending Vancouver Center
Mon 03:04:25 PM 48.9833 -125.2500 225° Southwest 180 207 6,400 -600 Descending Vancouver Center
Mon 03:05:25 PM 48.9333 -125.3000 213° Southwest 180 207 5,800 -700 Descending Vancouver Center
Mon 03:06:25 PM 48.9000 -125.3167 198° South 180 207 5,000 -800 Descending Vancouver Center
Mon 03:07:25 PM 48.8833 -125.4000 253° West 180 207 4,200 -900 Descending Vancouver Center
Mon 03:08:25 PM 48.9167 -125.4500 315° West 170 196 3,200 -550 Descending Vancouver Center
Mon 03:09:25 PM 48.9500 -125.5333 301° West 170 196 3,100 -51 Descending Vancouver Center
Mon 03:10:22 PM 48.9667 -125.5500 327° Northwest 150 173 3,100 -51 Level Vancouver Center
Mon 03:11:22 PM 48.9667 -125.6000 270° West 130 150 3,000 -600 Descending Vancouver Center
Mon 03:12:22 PM 48.9833 -125.6333 307° West 120 138 1,900 -900 Descending Vancouver Center
Mon 03:13:22 PM 49.0167 -125.6833 315° West 120 138 1,200 -650 Descending Vancouver Center
Mon 03:14:22 PM 49.0333 -125.7333 297° West 120 138 600 -600 Descending Vancouver Center
Mon 03:16:00 PM 49.0667 -125.7667 307° West  Level FlightAware Approximate

Login

Don't have an account? Register now (free) for customized features, flight alerts, and more!